sensor_id;sensor_type;location;lat;lon;timestamp;pressure;altitude;pressure_sealevel;temperature;humidity
27685;BME280;46113;50.130;8.526;2023-08-07T00:02:06;98550.75;;;9.79;84.26
27685;BME280;46113;50.130;8.526;2023-08-07T00:04:51;98554.34;;;9.78;84.18
27685;BME280;46113;50.130;8.526;2023-08-07T00:07:35;98553.28;;;9.80;84.35
27685;BME280;46113;50.130;8.526;2023-08-07T00:10:02;98557.75;;;9.80;84.12
27685;BME280;46113;50.130;8.526;2023-08-07T00:12:32;98555.75;;;9.84;83.47
27685;BME280;46113;50.130;8.526;2023-08-07T00:15:05;98550.44;;;9.84;83.83
27685;BME280;46113;50.130;8.526;2023-08-07T00:17:43;98554.38;;;9.91;83.76
27685;BME280;46113;50.130;8.526;2023-08-07T00:20:30;98555.66;;;9.85;84.05
27685;BME280;46113;50.130;8.526;2023-08-07T00:23:05;98559.56;;;9.92;83.83
27685;BME280;46113;50.130;8.526;2023-08-07T00:25:32;98555.53;;;9.72;84.30
27685;BME280;46113;50.130;8.526;2023-08-07T00:28:08;98554.72;;;9.72;83.61
27685;BME280;46113;50.130;8.526;2023-08-07T00:31:01;98558.59;;;9.66;84.15
27685;BME280;46113;50.130;8.526;2023-08-07T00:33:33;98551.63;;;9.65;83.61
27685;BME280;46113;50.130;8.526;2023-08-07T00:36:07;98569.47;;;9.61;84.21
27685;BME280;46113;50.130;8.526;2023-08-07T00:38:35;98550.22;;;9.59;83.61
27685;BME280;46113;50.130;8.526;2023-08-07T00:41:33;98562.81;;;9.68;83.71
27685;BME280;46113;50.130;8.526;2023-08-07T00:44:03;98553.31;;;9.66;83.32
27685;BME280;46113;50.130;8.526;2023-08-07T00:46:59;98567.53;;;9.78;82.80
27685;BME280;46113;50.130;8.526;2023-08-07T00:49:39;98561.78;;;9.71;83.15
27685;BME280;46113;50.130;8.526;2023-08-07T00:52:20;98565.63;;;9.52;84.29
27685;BME280;46113;50.130;8.526;2023-08-07T00:55:14;98569.97;;;9.53;84.12
27685;BME280;46113;50.130;8.526;2023-08-07T00:58:04;98572.81;;;9.36;84.50
27685;BME280;46113;50.130;8.526;2023-08-07T01:00:43;98561.59;;;9.47;84.38
27685;BME280;46113;50.130;8.526;2023-08-07T01:03:34;98570.78;;;9.54;83.89
27685;BME280;46113;50.130;8.526;2023-08-07T01:06:17;98569.16;;;9.38;84.33
27685;BME280;46113;50.130;8.526;2023-08-07T01:08:57;98566.13;;;9.45;84.54
27685;BME280;46113;50.130;8.526;2023-08-07T01:12:02;98571.66;;;9.54;84.10
27685;BME280;46113;50.130;8.526;2023-08-07T01:20:45;98581.31;;;9.41;84.70
27685;BME280;46113;50.130;8.526;2023-08-07T01:23:51;98583.97;;;9.26;85.10
27685;BME280;46113;50.130;8.526;2023-08-07T01:26:31;98584.72;;;9.43;84.08
27685;BME280;46113;50.130;8.526;2023-08-07T01:33:10;98581.84;;;9.46;83.88
27685;BME280;46113;50.130;8.526;2023-08-07T01:35:49;98590.72;;;9.45;84.22
27685;BME280;46113;50.130;8.526;2023-08-07T01:38:24;98588.72;;;9.49;84.08
27685;BME280;46113;50.130;8.526;2023-08-07T01:40:52;98579.53;;;9.27;84.29
27685;BME280;46113;50.130;8.526;2023-08-07T01:43:19;98593.75;;;9.39;83.76
27685;BME280;46113;50.130;8.526;2023-08-07T01:45:46;98600.94;;;9.37;84.18
27685;BME280;46113;50.130;8.526;2023-08-07T01:48:42;98600.09;;;9.36;84.41
27685;BME280;46113;50.130;8.526;2023-08-07T01:51:15;98619.13;;;9.27;84.28
27685;BME280;46113;50.130;8.526;2023-08-07T01:53:43;98601.31;;;9.30;84.75
27685;BME280;46113;50.130;8.526;2023-08-07T01:56:11;98599.63;;;9.15;84.64
27685;BME280;46113;50.130;8.526;2023-08-07T01:58:41;98599.53;;;9.16;84.52
27685;BME280;46113;50.130;8.526;2023-08-07T02:01:20;98603.38;;;9.25;84.06
27685;BME280;46113;50.130;8.526;2023-08-07T02:03:52;98612.72;;;9.31;84.05
27685;BME280;46113;50.130;8.526;2023-08-07T02:06:34;98611.19;;;9.41;83.70
27685;BME280;46113;50.130;8.526;2023-08-07T02:09:03;98613.13;;;9.25;84.05
27685;BME280;46113;50.130;8.526;2023-08-07T02:11:34;98608.03;;;9.07;84.25
27685;BME280;46113;50.130;8.526;2023-08-07T02:14:36;98619.69;;;9.32;83.63
27685;BME280;46113;50.130;8.526;2023-08-07T02:17:28;98609.72;;;9.23;83.42
27685;BME280;46113;50.130;8.526;2023-08-07T02:20:23;98621.75;;;9.41;83.73
27685;BME280;46113;50.130;8.526;2023-08-07T02:23:05;98614.34;;;9.19;83.67
27685;BME280;46113;50.130;8.526;2023-08-07T02:25:49;98618.75;;;9.19;83.79
27685;BME280;46113;50.130;8.526;2023-08-07T02:28:58;98615.47;;;9.15;83.73
27685;BME280;46113;50.130;8.526;2023-08-07T02:32:12;98630.00;;;9.22;83.31
27685;BME280;46113;50.130;8.526;2023-08-07T02:34:44;98614.91;;;9.10;83.42
27685;BME280;46113;50.130;8.526;2023-08-07T02:37:24;98616.50;;;9.27;83.04
27685;BME280;46113;50.130;8.526;2023-08-07T02:39:58;98618.50;;;9.23;83.42
27685;BME280;46113;50.130;8.526;2023-08-07T02:42:34;98619.31;;;9.24;83.10
27685;BME280;46113;50.130;8.526;2023-08-07T02:45:05;98620.66;;;9.31;82.87
27685;BME280;46113;50.130;8.526;2023-08-07T02:47:34;98625.06;;;9.16;83.41
27685;BME280;46113;50.130;8.526;2023-08-07T02:50:09;98623.28;;;9.16;82.83
27685;BME280;46113;50.130;8.526;2023-08-07T02:52:41;98623.88;;;9.07;83.51
27685;BME280;46113;50.130;8.526;2023-08-07T02:55:14;98620.56;;;9.18;82.94
27685;BME280;46113;50.130;8.526;2023-08-07T02:58:19;98618.41;;;9.25;82.98
27685;BME280;46113;50.130;8.526;2023-08-07T03:01:09;98613.69;;;9.15;83.61
27685;BME280;46113;50.130;8.526;2023-08-07T03:03:36;98620.09;;;8.97;83.63
27685;BME280;46113;50.130;8.526;2023-08-07T03:06:03;98611.53;;;9.08;83.53
27685;BME280;46113;50.130;8.526;2023-08-07T03:08:30;98614.16;;;9.22;83.00
27685;BME280;46113;50.130;8.526;2023-08-07T03:10:58;98616.13;;;9.19;83.25
27685;BME280;46113;50.130;8.526;2023-08-07T03:13:26;98610.28;;;9.13;83.79
27685;BME280;46113;50.130;8.526;2023-08-07T03:15:59;98615.69;;;8.97;83.50
27685;BME280;46113;50.130;8.526;2023-08-07T03:18:28;98621.44;;;9.04;82.99
27685;BME280;46113;50.130;8.526;2023-08-07T03:20:58;98622.09;;;9.08;84.08
27685;BME280;46113;50.130;8.526;2023-08-07T03:23:26;98620.09;;;9.11;83.98
27685;BME280;46113;50.130;8.526;2023-08-07T03:26:12;98614.81;;;9.11;83.91
27685;BME280;46113;50.130;8.526;2023-08-07T03:28:54;98611.13;;;8.99;83.75
27685;BME280;46113;50.130;8.526;2023-08-07T03:31:42;98618.19;;;9.13;83.65
27685;BME280;46113;50.130;8.526;2023-08-07T03:34:35;98621.22;;;9.07;83.37
27685;BME280;46113;50.130;8.526;2023-08-07T03:37:14;98623.03;;;9.07;83.60
27685;BME280;46113;50.130;8.526;2023-08-07T03:39:56;98633.38;;;8.95;83.67
27685;BME280;46113;50.130;8.526;2023-08-07T03:43:25;98620.94;;;8.68;84.40
27685;BME280;46113;50.130;8.526;2023-08-07T03:46:17;98629.44;;;8.88;84.39
27685;BME280;46113;50.130;8.526;2023-08-07T03:48:44;98635.94;;;8.97;83.70
27685;BME280;46113;50.130;8.526;2023-08-07T03:51:21;98628.66;;;9.00;83.30
27685;BME280;46113;50.130;8.526;2023-08-07T03:53:58;98629.50;;;8.72;84.19
27685;BME280;46113;50.130;8.526;2023-08-07T03:56:59;98629.69;;;8.83;84.38
27685;BME280;46113;50.130;8.526;2023-08-07T03:59:39;98627.72;;;8.87;83.83
27685;BME280;46113;50.130;8.526;2023-08-07T04:02:06;98641.28;;;8.95;83.87
27685;BME280;46113;50.130;8.526;2023-08-07T04:04:37;98637.91;;;8.93;83.94
27685;BME280;46113;50.130;8.526;2023-08-07T04:07:14;98638.75;;;8.79;84.09
27685;BME280;46113;50.130;8.526;2023-08-07T04:10:11;98642.63;;;9.02;83.37
27685;BME280;46113;50.130;8.526;2023-08-07T04:12:38;98638.47;;;8.98;84.08
27685;BME280;46113;50.130;8.526;2023-08-07T04:15:19;98652.78;;;9.09;84.28
27685;BME280;46113;50.130;8.526;2023-08-07T04:17:46;98654.59;;;8.94;84.41
27685;BME280;46113;50.130;8.526;2023-08-07T04:20:12;98647.13;;;8.86;84.01
27685;BME280;46113;50.130;8.526;2023-08-07T04:22:39;98645.72;;;8.80;83.75
27685;BME280;46113;50.130;8.526;2023-08-07T04:25:06;98646.00;;;8.90;83.77
27685;BME280;46113;50.130;8.526;2023-08-07T04:27:33;98652.28;;;8.73;84.38
27685;BME280;46113;50.130;8.526;2023-08-07T04:29:59;98660.28;;;8.57;85.00
27685;BME280;46113;50.130;8.526;2023-08-07T04:32:26;98663.00;;;8.55;84.43
27685;BME280;46113;50.130;8.526;2023-08-07T04:35:09;98659.53;;;8.69;84.83
27685;BME280;46113;50.130;8.526;2023-08-07T04:37:52;98661.72;;;8.77;84.91
27685;BME280;46113;50.130;8.526;2023-08-07T04:40:19;98657.69;;;8.71;84.86
27685;BME280;46113;50.130;8.526;2023-08-07T04:43:19;98663.41;;;8.78;84.37
27685;BME280;46113;50.130;8.526;2023-08-07T04:45:56;98663.50;;;8.91;83.68
27685;BME280;46113;50.130;8.526;2023-08-07T04:48:35;98670.56;;;8.76;84.39
27685;BME280;46113;50.130;8.526;2023-08-07T04:51:18;98676.69;;;8.62;84.38
27685;BME280;46113;50.130;8.526;2023-08-07T04:53:59;98685.06;;;8.83;84.34
27685;BME280;46113;50.130;8.526;2023-08-07T04:56:47;98691.09;;;8.71;84.44
27685;BME280;46113;50.130;8.526;2023-08-07T04:59:44;98693.31;;;8.62;84.35
27685;BME280;46113;50.130;8.526;2023-08-07T05:02:27;98686.50;;;8.89;83.67
27685;BME280;46113;50.130;8.526;2023-08-07T05:04:54;98680.00;;;8.80;84.20
27685;BME280;46113;50.130;8.526;2023-08-07T05:07:20;98692.91;;;8.85;83.84
27685;BME280;46113;50.130;8.526;2023-08-07T05:10:02;98691.88;;;8.87;83.95
27685;BME280;46113;50.130;8.526;2023-08-07T05:12:31;98698.47;;;8.80;84.11
27685;BME280;46113;50.130;8.526;2023-08-07T05:15:05;98694.03;;;8.81;83.71
27685;BME280;46113;50.130;8.526;2023-08-07T05:17:32;98704.50;;;8.97;83.72
27685;BME280;46113;50.130;8.526;2023-08-07T05:19:59;98700.94;;;8.98;83.91
27685;BME280;46113;50.130;8.526;2023-08-07T05:22:26;98702.41;;;8.87;84.01
27685;BME280;46113;50.130;8.526;2023-08-07T05:24:52;98701.34;;;8.75;84.74
27685;BME280;46113;50.130;8.526;2023-08-07T05:27:19;98707.69;;;8.87;84.06
27685;BME280;46113;50.130;8.526;2023-08-07T05:29:46;98701.47;;;8.88;83.99
27685;BME280;46113;50.130;8.526;2023-08-07T05:32:13;98706.41;;;8.95;83.81
27685;BME280;46113;50.130;8.526;2023-08-07T05:34:41;98708.59;;;9.02;83.35
27685;BME280;46113;50.130;8.526;2023-08-07T05:37:08;98709.53;;;9.01;83.85
27685;BME280;46113;50.130;8.526;2023-08-07T05:39:35;98713.38;;;8.96;83.62
27685;BME280;46113;50.130;8.526;2023-08-07T05:42:02;98716.75;;;8.98;83.07
27685;BME280;46113;50.130;8.526;2023-08-07T05:44:29;98714.50;;;9.06;83.14
27685;BME280;46113;50.130;8.526;2023-08-07T05:46:56;98710.78;;;8.80;83.01
27685;BME280;46113;50.130;8.526;2023-08-07T05:49:23;98717.31;;;8.88;84.36
27685;BME280;46113;50.130;8.526;2023-08-07T05:51:52;98717.59;;;8.84;83.25
27685;BME280;46113;50.130;8.526;2023-08-07T05:54:20;98709.38;;;8.88;83.37
27685;BME280;46113;50.130;8.526;2023-08-07T05:56:47;98721.88;;;9.01;83.31
27685;BME280;46113;50.130;8.526;2023-08-07T05:59:14;98713.97;;;8.70;83.61
27685;BME280;46113;50.130;8.526;2023-08-07T06:01:42;98721.47;;;8.93;83.74
27685;BME280;46113;50.130;8.526;2023-08-07T06:04:09;98727.50;;;8.95;84.06
27685;BME280;46113;50.130;8.526;2023-08-07T06:06:36;98723.56;;;9.16;83.30
27685;BME280;46113;50.130;8.526;2023-08-07T06:09:03;98728.75;;;9.18;83.25
27685;BME280;46113;50.130;8.526;2023-08-07T06:11:30;98724.03;;;9.09;83.49
27685;BME280;46113;50.130;8.526;2023-08-07T06:14:00;98725.19;;;9.19;83.23
27685;BME280;46113;50.130;8.526;2023-08-07T06:16:27;98734.69;;;9.07;83.22
27685;BME280;46113;50.130;8.526;2023-08-07T06:18:54;98728.38;;;9.10;82.94
27685;BME280;46113;50.130;8.526;2023-08-07T06:21:21;98731.50;;;9.16;83.17
27685;BME280;46113;50.130;8.526;2023-08-07T06:23:48;98730.91;;;9.11;82.80
27685;BME280;46113;50.130;8.526;2023-08-07T06:26:15;98743.50;;;8.92;83.15
27685;BME280;46113;50.130;8.526;2023-08-07T06:28:42;98741.09;;;9.18;83.04
27685;BME280;46113;50.130;8.526;2023-08-07T06:31:10;98750.72;;;9.19;82.17
27685;BME280;46113;50.130;8.526;2023-08-07T06:33:38;98744.50;;;9.20;82.84
27685;BME280;46113;50.130;8.526;2023-08-07T06:36:06;98746.31;;;9.34;82.43
27685;BME280;46113;50.130;8.526;2023-08-07T06:38:37;98748.75;;;9.22;81.99
27685;BME280;46113;50.130;8.526;2023-08-07T06:41:04;98750.81;;;9.32;82.31
27685;BME280;46113;50.130;8.526;2023-08-07T06:43:31;98761.66;;;9.41;82.20
27685;BME280;46113;50.130;8.526;2023-08-07T06:45:58;98754.94;;;9.21;82.24
27685;BME280;46113;50.130;8.526;2023-08-07T06:48:25;98745.09;;;9.39;81.81
27685;BME280;46113;50.130;8.526;2023-08-07T06:50:52;98756.41;;;9.41;82.04
27685;BME280;46113;50.130;8.526;2023-08-07T06:53:19;98755.06;;;9.49;81.89
27685;BME280;46113;50.130;8.526;2023-08-07T06:56:12;98764.03;;;9.46;81.78
27685;BME280;46113;50.130;8.526;2023-08-07T06:58:38;98763.75;;;9.51;82.26
27685;BME280;46113;50.130;8.526;2023-08-07T07:01:05;98760.81;;;9.26;82.02
27685;BME280;46113;50.130;8.526;2023-08-07T07:03:32;98760.25;;;9.36;81.97
27685;BME280;46113;50.130;8.526;2023-08-07T07:06:00;98770.25;;;9.45;81.20
27685;BME280;46113;50.130;8.526;2023-08-07T07:08:33;98770.63;;;9.53;80.61
27685;BME280;46113;50.130;8.526;2023-08-07T07:11:00;98780.25;;;9.40;81.43
27685;BME280;46113;50.130;8.526;2023-08-07T07:13:27;98776.84;;;9.38;81.02
27685;BME280;46113;50.130;8.526;2023-08-07T07:15:54;98782.78;;;9.41;80.74
27685;BME280;46113;50.130;8.526;2023-08-07T07:18:31;98781.91;;;9.26;81.28
27685;BME280;46113;50.130;8.526;2023-08-07T07:21:08;98795.97;;;9.27;81.29
27685;BME280;46113;50.130;8.526;2023-08-07T07:23:35;98790.88;;;9.38;80.93
27685;BME280;46113;50.130;8.526;2023-08-07T07:26:01;98794.13;;;9.58;81.42
27685;BME280;46113;50.130;8.526;2023-08-07T07:28:28;98808.00;;;9.47;81.03
27685;BME280;46113;50.130;8.526;2023-08-07T07:30:55;98806.94;;;9.50;80.58
27685;BME280;46113;50.130;8.526;2023-08-07T07:33:22;98801.00;;;9.61;81.28
27685;BME280;46113;50.130;8.526;2023-08-07T07:35:49;98811.00;;;9.55;81.00
27685;BME280;46113;50.130;8.526;2023-08-07T07:38:16;98809.84;;;9.45;81.08
27685;BME280;46113;50.130;8.526;2023-08-07T07:40:45;98812.91;;;9.68;80.99
27685;BME280;46113;50.130;8.526;2023-08-07T07:43:12;98818.84;;;9.72;81.24
27685;BME280;46113;50.130;8.526;2023-08-07T07:45:39;98817.69;;;9.61;80.87
27685;BME280;46113;50.130;8.526;2023-08-07T07:53:48;98838.31;;;9.40;81.03
27685;BME280;46113;50.130;8.526;2023-08-07T07:56:46;98848.44;;;9.62;80.86
27685;BME280;46113;50.130;8.526;2023-08-07T07:59:42;98843.44;;;9.72;80.12
27685;BME280;46113;50.130;8.526;2023-08-07T08:02:37;98852.00;;;9.77;80.35
27685;BME280;46113;50.130;8.526;2023-08-07T08:05:08;98848.03;;;9.85;80.58
27685;BME280;46113;50.130;8.526;2023-08-07T08:07:51;98852.59;;;9.66;80.01
27685;BME280;46113;50.130;8.526;2023-08-07T08:10:20;98851.69;;;9.82;80.71
27685;BME280;46113;50.130;8.526;2023-08-07T08:13:22;98860.63;;;9.65;80.19
27685;BME280;46113;50.130;8.526;2023-08-07T08:15:51;98857.72;;;9.84;80.34
27685;BME280;46113;50.130;8.526;2023-08-07T08:18:25;98866.19;;;9.75;80.29
27685;BME280;46113;50.130;8.526;2023-08-07T08:21:28;98872.50;;;9.72;80.11
27685;BME280;46113;50.130;8.526;2023-08-07T08:23:54;98869.72;;;9.75;80.15
27685;BME280;46113;50.130;8.526;2023-08-07T08:26:21;98867.50;;;9.67;80.28
27685;BME280;46113;50.130;8.526;2023-08-07T08:28:48;98874.53;;;9.98;80.17
27685;BME280;46113;50.130;8.526;2023-08-07T08:31:15;98868.59;;;9.79;80.74
27685;BME280;46113;50.130;8.526;2023-08-07T08:33:42;98873.97;;;9.78;79.64
27685;BME280;46113;50.130;8.526;2023-08-07T08:36:08;98878.31;;;10.08;79.41
27685;BME280;46113;50.130;8.526;2023-08-07T08:38:35;98880.00;;;10.24;79.79
27685;BME280;46113;50.130;8.526;2023-08-07T08:41:09;98879.63;;;10.15;79.77
27685;BME280;46113;50.130;8.526;2023-08-07T08:43:46;98886.59;;;9.87;78.95
27685;BME280;46113;50.130;8.526;2023-08-07T08:46:19;98889.16;;;10.03;79.03
27685;BME280;46113;50.130;8.526;2023-08-07T08:48:51;98886.63;;;10.16;78.92
27685;BME280;46113;50.130;8.526;2023-08-07T08:51:33;98891.34;;;10.11;79.15
27685;BME280;46113;50.130;8.526;2023-08-07T08:54:44;98896.72;;;10.24;78.67
27685;BME280;46113;50.130;8.526;2023-08-07T08:57:11;98897.94;;;10.18;78.19
27685;BME280;46113;50.130;8.526;2023-08-07T08:59:44;98895.19;;;10.34;79.15
27685;BME280;46113;50.130;8.526;2023-08-07T09:02:38;98899.25;;;10.26;78.19
27685;BME280;46113;50.130;8.526;2023-08-07T09:05:27;98898.00;;;10.31;78.55
27685;BME280;46113;50.130;8.526;2023-08-07T09:07:57;98893.13;;;10.25;78.97
27685;BME280;46113;50.130;8.526;2023-08-07T09:10:50;98901.03;;;10.40;77.97
27685;BME280;46113;50.130;8.526;2023-08-07T09:13:33;98902.53;;;10.44;77.56
27685;BME280;46113;50.130;8.526;2023-08-07T09:16:02;98902.63;;;10.57;77.98
27685;BME280;46113;50.130;8.526;2023-08-07T09:18:29;98904.88;;;10.63;77.01
27685;BME280;46113;50.130;8.526;2023-08-07T09:20:57;98903.50;;;10.28;78.01
27685;BME280;46113;50.130;8.526;2023-08-07T09:23:24;98917.47;;;10.87;77.52
27685;BME280;46113;50.130;8.526;2023-08-07T09:26:12;98915.38;;;10.92;76.71
27685;BME280;46113;50.130;8.526;2023-08-07T09:28:52;98915.53;;;10.61;76.09
27685;BME280;46113;50.130;8.526;2023-08-07T09:31:50;98918.56;;;10.55;76.48
27685;BME280;46113;50.130;8.526;2023-08-07T09:34:33;98918.28;;;10.45;77.37
27685;BME280;46113;50.130;8.526;2023-08-07T09:37:01;98925.94;;;10.65;77.11
27685;BME280;46113;50.130;8.526;2023-08-07T09:39:29;98927.72;;;10.49;77.66
27685;BME280;46113;50.130;8.526;2023-08-07T09:42:01;98933.00;;;10.64;77.22
27685;BME280;46113;50.130;8.526;2023-08-07T10:55:50;98986.28;;;10.14;79.77
27685;BME280;46113;50.130;8.526;2023-08-07T10:58:30;98995.19;;;10.28;79.90
27685;BME280;46113;50.130;8.526;2023-08-07T11:04:13;98996.28;;;10.09;79.11
27685;BME280;46113;50.130;8.526;2023-08-07T11:06:41;98988.19;;;10.12;79.34
27685;BME280;46113;50.130;8.526;2023-08-07T11:09:09;98995.56;;;10.36;79.09
27685;BME280;46113;50.130;8.526;2023-08-07T11:11:41;98983.28;;;10.20;79.38
27685;BME280;46113;50.130;8.526;2023-08-07T11:14:13;98988.84;;;10.59;79.93
27685;BME280;46113;50.130;8.526;2023-08-07T11:16:40;99002.31;;;10.84;79.04
27685;BME280;46113;50.130;8.526;2023-08-07T11:19:08;98996.84;;;10.87;79.08
27685;BME280;46113;50.130;8.526;2023-08-07T11:21:35;99004.06;;;10.41;79.12
27685;BME280;46113;50.130;8.526;2023-08-07T11:24:03;99004.72;;;10.59;78.86
27685;BME280;46113;50.130;8.526;2023-08-07T11:26:30;98998.78;;;10.41;78.94
27685;BME280;46113;50.130;8.526;2023-08-07T11:28:57;99005.75;;;10.71;79.46
27685;BME280;46113;50.130;8.526;2023-08-07T11:31:24;99003.22;;;10.70;79.05
27685;BME280;46113;50.130;8.526;2023-08-07T11:33:52;99008.59;;;10.97;78.56
27685;BME280;46113;50.130;8.526;2023-08-07T11:36:19;99012.59;;;10.88;78.54
27685;BME280;46113;50.130;8.526;2023-08-07T11:38:46;99007.06;;;10.64;78.40
27685;BME280;46113;50.130;8.526;2023-08-07T11:41:15;99010.00;;;10.74;78.76
27685;BME280;46113;50.130;8.526;2023-08-07T11:43:43;99012.66;;;10.59;79.15
27685;BME280;46113;50.130;8.526;2023-08-07T11:46:12;99008.31;;;10.58;78.31
27685;BME280;46113;50.130;8.526;2023-08-07T11:48:40;99007.72;;;10.82;79.49
27685;BME280;46113;50.130;8.526;2023-08-07T11:51:08;99014.78;;;11.11;78.29
27685;BME280;46113;50.130;8.526;2023-08-07T11:53:36;99024.81;;;11.06;77.94
27685;BME280;46113;50.130;8.526;2023-08-07T11:56:06;99018.22;;;10.98;77.34
27685;BME280;46113;50.130;8.526;2023-08-07T11:58:35;99023.88;;;10.78;76.57
27685;BME280;46113;50.130;8.526;2023-08-07T12:01:15;99027.28;;;10.80;77.12
27685;BME280;46113;50.130;8.526;2023-08-07T12:06:23;99017.91;;;10.88;77.85
27685;BME280;46113;50.130;8.526;2023-08-07T12:08:53;99030.97;;;11.06;78.05
27685;BME280;46113;50.130;8.526;2023-08-07T12:11:20;99032.88;;;10.75;78.17
27685;BME280;46113;50.130;8.526;2023-08-07T12:13:48;99035.59;;;10.73;77.51
27685;BME280;46113;50.130;8.526;2023-08-07T12:16:15;99028.97;;;11.10;77.75
27685;BME280;46113;50.130;8.526;2023-08-07T12:18:50;99030.94;;;11.21;75.76
27685;BME280;46113;50.130;8.526;2023-08-07T12:21:19;99026.13;;;11.68;76.21
27685;BME280;46113;50.130;8.526;2023-08-07T12:23:47;99034.03;;;11.27;75.54
27685;BME280;46113;50.130;8.526;2023-08-07T12:26:17;99034.03;;;11.27;76.39
27685;BME280;46113;50.130;8.526;2023-08-07T12:28:44;99036.25;;;11.48;75.18
27685;BME280;46113;50.130;8.526;2023-08-07T12:31:10;99036.53;;;12.25;75.02
27685;BME280;46113;50.130;8.526;2023-08-07T12:33:37;99041.63;;;12.54;73.83
27685;BME280;46113;50.130;8.526;2023-08-07T12:36:14;99056.16;;;12.87;72.54
27685;BME280;46113;50.130;8.526;2023-08-07T12:38:44;99051.75;;;12.86;72.12
27685;BME280;46113;50.130;8.526;2023-08-07T12:41:10;99058.47;;;12.92;72.16
27685;BME280;46113;50.130;8.526;2023-08-07T12:43:40;99055.72;;;12.80;70.63
27685;BME280;46113;50.130;8.526;2023-08-07T12:46:07;99054.13;;;13.28;70.69
27685;BME280;46113;50.130;8.526;2023-08-07T12:48:36;99055.25;;;13.12;70.44
27685;BME280;46113;50.130;8.526;2023-08-07T12:51:03;99054.34;;;13.38;70.09
27685;BME280;46113;50.130;8.526;2023-08-07T12:53:30;99058.13;;;13.47;68.39
27685;BME280;46113;50.130;8.526;2023-08-07T12:55:58;99056.38;;;13.95;67.57
27685;BME280;46113;50.130;8.526;2023-08-07T12:58:24;99057.53;;;13.79;67.53
27685;BME280;46113;50.130;8.526;2023-08-07T13:00:54;99048.75;;;13.90;67.85
27685;BME280;46113;50.130;8.526;2023-08-07T13:03:21;99057.75;;;14.48;67.70
27685;BME280;46113;50.130;8.526;2023-08-07T13:05:48;99062.03;;;14.14;67.30
27685;BME280;46113;50.130;8.526;2023-08-07T13:08:14;99059.44;;;14.49;67.22
27685;BME280;46113;50.130;8.526;2023-08-07T13:10:41;99055.72;;;14.04;65.87
27685;BME280;46113;50.130;8.526;2023-08-07T13:13:08;99054.25;;;14.58;65.81
27685;BME280;46113;50.130;8.526;2023-08-07T13:15:35;99051.47;;;14.60;66.10
27685;BME280;46113;50.130;8.526;2023-08-07T13:18:02;99050.16;;;13.83;66.67
27685;BME280;46113;50.130;8.526;2023-08-07T13:20:32;99056.00;;;14.24;67.78
27685;BME280;46113;50.130;8.526;2023-08-07T13:23:04;99058.72;;;14.47;67.41
27685;BME280;46113;50.130;8.526;2023-08-07T13:25:33;99066.44;;;14.27;67.14
27685;BME280;46113;50.130;8.526;2023-08-07T13:28:00;99074.19;;;14.41;65.02
27685;BME280;46113;50.130;8.526;2023-08-07T13:30:27;99075.25;;;13.91;64.46
27685;BME280;46113;50.130;8.526;2023-08-07T13:33:02;99071.50;;;13.70;66.59
27685;BME280;46113;50.130;8.526;2023-08-07T13:35:29;99072.53;;;13.56;66.89
27685;BME280;46113;50.130;8.526;2023-08-07T13:37:57;99062.38;;;13.49;68.54
27685;BME280;46113;50.130;8.526;2023-08-07T13:40:24;99062.38;;;13.49;67.24
27685;BME280;46113;50.130;8.526;2023-08-07T13:42:51;99075.38;;;13.65;68.11
27685;BME280;46113;50.130;8.526;2023-08-07T13:45:19;99074.31;;;13.68;69.37
27685;BME280;46113;50.130;8.526;2023-08-07T13:47:46;99075.09;;;13.57;68.57
27685;BME280;46113;50.130;8.526;2023-08-07T13:50:13;99071.34;;;13.35;68.49
27685;BME280;46113;50.130;8.526;2023-08-07T13:52:39;99062.16;;;13.15;66.84
27685;BME280;46113;50.130;8.526;2023-08-07T13:55:06;99066.81;;;13.24;69.26
27685;BME280;46113;50.130;8.526;2023-08-07T13:57:35;99069.28;;;13.02;67.26
27685;BME280;46113;50.130;8.526;2023-08-07T14:00:02;99069.72;;;13.08;72.48
27685;BME280;46113;50.130;8.526;2023-08-07T14:02:30;99072.91;;;12.88;69.71
27685;BME280;46113;50.130;8.526;2023-08-07T14:04:58;99071.72;;;13.18;70.03
27685;BME280;46113;50.130;8.526;2023-08-07T14:07:29;99069.41;;;13.13;69.34
27685;BME280;46113;50.130;8.526;2023-08-07T14:10:00;99062.19;;;12.89;68.41
27685;BME280;46113;50.130;8.526;2023-08-07T14:12:26;99058.44;;;13.18;68.70
27685;BME280;46113;50.130;8.526;2023-08-07T14:14:53;99062.53;;;13.35;70.93
27685;BME280;46113;50.130;8.526;2023-08-07T14:17:20;99064.84;;;13.64;69.85
27685;BME280;46113;50.130;8.526;2023-08-07T14:19:47;99067.47;;;13.52;66.87
27685;BME280;46113;50.130;8.526;2023-08-07T14:22:14;99063.81;;;13.78;67.90
27685;BME280;46113;50.130;8.526;2023-08-07T14:24:41;99064.47;;;14.17;67.03
27685;BME280;46113;50.130;8.526;2023-08-07T14:27:07;99062.81;;;14.28;65.98
27685;BME280;46113;50.130;8.526;2023-08-07T14:29:35;99070.06;;;14.37;65.62
27685;BME280;46113;50.130;8.526;2023-08-07T14:32:03;99069.97;;;14.39;65.10
27685;BME280;46113;50.130;8.526;2023-08-07T14:34:30;99077.47;;;14.45;65.89
27685;BME280;46113;50.130;8.526;2023-08-07T14:36:56;99072.13;;;13.98;66.93
27685;BME280;46113;50.130;8.526;2023-08-07T14:39:23;99079.94;;;14.12;65.03
27685;BME280;46113;50.130;8.526;2023-08-07T14:41:50;99071.75;;;14.27;68.46
27685;BME280;46113;50.130;8.526;2023-08-07T14:44:18;99070.94;;;14.49;62.55
27685;BME280;46113;50.130;8.526;2023-08-07T14:47:00;99074.59;;;14.82;63.37
27685;BME280;46113;50.130;8.526;2023-08-07T14:49:42;99065.28;;;14.77;60.36
27685;BME280;46113;50.130;8.526;2023-08-07T14:52:29;99066.00;;;15.02;63.24
27685;BME280;46113;50.130;8.526;2023-08-07T14:55:15;99063.56;;;14.53;67.25
27685;BME280;46113;50.130;8.526;2023-08-07T14:57:59;99067.78;;;14.44;61.06
27685;BME280;46113;50.130;8.526;2023-08-07T15:00:55;99069.97;;;14.39;65.20
27685;BME280;46113;50.130;8.526;2023-08-07T15:04:01;99072.31;;;14.66;61.73
27685;BME280;46113;50.130;8.526;2023-08-07T15:07:01;99071.56;;;14.87;62.38
27685;BME280;46113;50.130;8.526;2023-08-07T15:09:39;99064.19;;;14.91;56.29
27685;BME280;46113;50.130;8.526;2023-08-07T15:12:06;99072.91;;;15.04;58.20
27685;BME280;46113;50.130;8.526;2023-08-07T15:14:33;99060.53;;;14.92;57.53
27685;BME280;46113;50.130;8.526;2023-08-07T15:17:00;99067.56;;;14.70;56.83